createdAt,value
2019-01-24T00:02:22.889Z,-0.37
2019-01-24T00:04:53.929Z,-0.28
2019-01-24T00:07:24.904Z,-0.30
2019-01-24T00:09:55.792Z,-0.39
2019-01-24T00:12:26.844Z,-0.43
2019-01-24T00:14:57.745Z,-0.41
2019-01-24T00:17:28.600Z,-0.40
2019-01-24T00:19:59.312Z,-0.42
2019-01-24T00:22:30.324Z,-0.50
2019-01-24T00:25:01.116Z,-0.53
2019-01-24T00:27:32.013Z,-0.50
2019-01-24T00:30:02.895Z,-0.55
2019-01-24T00:32:33.960Z,-0.44
2019-01-24T00:35:05.141Z,-0.48
2019-01-24T00:37:35.934Z,-0.64
2019-01-24T00:40:08.353Z,-0.76
2019-01-24T00:42:39.273Z,-0.65
2019-01-24T00:45:10.237Z,-0.75
2019-01-24T00:47:41.125Z,-0.67
2019-01-24T00:50:12.615Z,-0.75
2019-01-24T00:52:43.851Z,-0.59
2019-01-24T00:55:15.317Z,-0.56
2019-01-24T00:57:46.242Z,-0.55
2019-01-24T01:00:19.757Z,-0.56
2019-01-24T01:02:51.058Z,-0.53
2019-01-24T01:05:22.365Z,-0.58
2019-01-24T01:07:53.269Z,-0.56
2019-01-24T01:10:24.165Z,-0.59
2019-01-24T01:12:55.240Z,-0.57
2019-01-24T01:15:26.004Z,-0.67
2019-01-24T01:17:56.885Z,-0.65
2019-01-24T01:20:27.674Z,-0.70
2019-01-24T01:22:59.396Z,-0.67
2019-01-24T01:25:30.260Z,-0.68
2019-01-24T01:28:01.152Z,-0.79
2019-01-24T01:30:31.949Z,-0.68
2019-01-24T01:33:02.947Z,-0.67
2019-01-24T01:35:33.848Z,-0.66
2019-01-24T01:38:04.706Z,-0.80
2019-01-24T01:40:35.596Z,-0.68
2019-01-24T01:43:06.772Z,-0.59
2019-01-24T01:45:37.605Z,-0.70
2019-01-24T01:48:08.494Z,-0.75
2019-01-24T01:50:39.266Z,-0.77
2019-01-24T01:53:10.132Z,-0.66
2019-01-24T01:55:41.012Z,-0.65
2019-01-24T01:58:12.296Z,-0.65
2019-01-24T02:00:43.413Z,-0.80
2019-01-24T02:03:14.388Z,-0.76
2019-01-24T02:05:45.224Z,-0.73
2019-01-24T02:08:16.267Z,-0.80
2019-01-24T02:10:47.173Z,-0.87
2019-01-24T02:13:18.187Z,-0.83
2019-01-24T02:15:49.249Z,-0.87
2019-01-24T02:18:20.430Z,-0.84
2019-01-24T02:20:51.253Z,-0.76
2019-01-24T02:23:22.114Z,-0.85
2019-01-24T02:25:52.998Z,-0.98
2019-01-24T02:28:23.931Z,-1.00
2019-01-24T02:30:54.815Z,-1.00
2019-01-24T02:33:26.009Z,-0.89
2019-01-24T02:35:56.759Z,-0.92
2019-01-24T02:38:27.640Z,-0.84
2019-01-24T02:40:58.543Z,-0.78
2019-01-24T02:43:29.368Z,-0.77
2019-01-24T02:46:00.134Z,-0.84
2019-01-24T02:48:31.044Z,-0.97
2019-01-24T02:51:01.811Z,-0.89
2019-01-24T02:53:32.846Z,-0.79
2019-01-24T02:56:03.757Z,-0.85
2019-01-24T02:58:34.681Z,-0.72
2019-01-24T03:01:06.145Z,-0.73
2019-01-24T03:03:37.028Z,-0.68
2019-01-24T03:06:08.063Z,-0.75
2019-01-24T03:08:38.947Z,-0.72
2019-01-24T03:11:10.859Z,-0.70
2019-01-24T03:13:41.821Z,-0.78
2019-01-24T03:16:12.595Z,-0.92
2019-01-24T03:18:43.384Z,-0.93
2019-01-24T03:21:14.160Z,-0.86
2019-01-24T03:23:45.057Z,-0.83
2019-01-24T03:26:15.876Z,-0.97
2019-01-24T03:28:46.857Z,-0.91
2019-01-24T03:31:17.751Z,-0.85
2019-01-24T03:33:49.009Z,-0.88
2019-01-24T03:36:19.893Z,-0.77
2019-01-24T03:38:50.825Z,-0.83
2019-01-24T03:41:21.705Z,-0.80
2019-01-24T03:43:52.660Z,-0.70
2019-01-24T03:46:23.544Z,-0.70
2019-01-24T03:48:54.925Z,-0.80
2019-01-24T03:51:25.768Z,-0.80
2019-01-24T03:53:56.833Z,-0.73
2019-01-24T03:56:27.615Z,-0.78
2019-01-24T03:58:58.785Z,-0.88
2019-01-24T04:01:30.136Z,-0.91
2019-01-24T04:04:01.093Z,-1.00
2019-01-24T04:06:31.991Z,-1.06
2019-01-24T04:09:02.904Z,-0.97
2019-01-24T04:11:33.898Z,-1.00
2019-01-24T04:14:05.045Z,-0.93
2019-01-24T04:16:35.841Z,-1.05
2019-01-24T04:19:06.826Z,-1.12
2019-01-24T04:21:37.720Z,-1.23
2019-01-24T04:24:08.892Z,-1.01
2019-01-24T04:26:39.728Z,-1.13
2019-01-24T04:29:10.622Z,-0.98
2019-01-24T04:31:41.521Z,-0.98
2019-01-24T04:34:12.537Z,-1.06
2019-01-24T04:36:43.377Z,-1.03
2019-01-24T04:39:14.267Z,-1.11
2019-01-24T04:41:45.052Z,-1.07
2019-01-24T04:44:16.120Z,-1.02
2019-01-24T04:46:46.997Z,-1.10
2019-01-24T04:49:17.772Z,-1.19
2019-01-24T04:51:48.573Z,-1.27
2019-01-24T04:54:19.357Z,-1.28
2019-01-24T04:56:50.188Z,-1.14
2019-01-24T04:59:21.064Z,-1.16
2019-01-24T05:01:51.910Z,-1.28
2019-01-24T05:04:22.718Z,-1.35
2019-01-24T05:06:53.585Z,-1.13
2019-01-24T05:09:24.441Z,-1.18
2019-01-24T05:11:55.291Z,-1.15
2019-01-24T05:14:26.284Z,-1.17
2019-01-24T05:16:57.041Z,-1.30
2019-01-24T05:19:28.081Z,-1.36
2019-01-24T05:21:58.909Z,-1.20
2019-01-24T05:24:29.777Z,-1.13
2019-01-24T05:27:00.695Z,-1.25
2019-01-24T05:29:31.563Z,-1.24
2019-01-24T05:32:03.390Z,-1.22
2019-01-24T05:34:34.169Z,-1.15
2019-01-24T05:37:05.058Z,-1.11
2019-01-24T05:39:35.833Z,-1.21
2019-01-24T05:42:06.718Z,-1.20
2019-01-24T05:44:37.646Z,-1.32
2019-01-24T05:47:08.433Z,-1.36
2019-01-24T05:49:39.281Z,-1.38
2019-01-24T05:52:10.112Z,-1.47
2019-01-24T05:54:40.992Z,-1.52
2019-01-24T05:57:11.846Z,-1.57
2019-01-24T05:59:42.724Z,-1.41
2019-01-24T06:02:13.522Z,-1.34
2019-01-24T06:04:44.397Z,-1.25
2019-01-24T06:07:15.195Z,-1.31
2019-01-24T06:09:46.106Z,-1.22
2019-01-24T06:12:17.002Z,-1.41
2019-01-24T06:14:47.786Z,-1.54
2019-01-24T06:17:18.582Z,-1.47
2019-01-24T06:19:49.457Z,-1.49
2019-01-24T06:22:20.354Z,-1.46
2019-01-24T06:24:51.231Z,-1.51
2019-01-24T06:27:22.028Z,-1.43
2019-01-24T06:29:52.913Z,-1.27
2019-01-24T06:32:23.760Z,-1.48
2019-01-24T06:34:54.553Z,-1.52
2019-01-24T06:37:25.432Z,-1.38
2019-01-24T06:39:56.521Z,-1.46
2019-01-24T06:42:27.344Z,-1.41
2019-01-24T06:44:58.337Z,-1.31
2019-01-24T06:47:29.219Z,-1.23
2019-01-24T06:49:59.909Z,-1.14
2019-01-24T06:52:30.663Z,-1.21
2019-01-24T06:55:02.598Z,-1.32
2019-01-24T06:57:33.454Z,-1.13
2019-01-24T07:00:04.626Z,-1.00
2019-01-24T07:02:35.683Z,-1.07
2019-01-24T07:05:06.923Z,-0.90
2019-01-24T07:07:38.032Z,-0.89
2019-01-24T07:10:12.013Z,-1.11
2019-01-24T07:12:43.069Z,-0.99
2019-01-24T07:15:16.861Z,-1.00
2019-01-24T07:17:47.878Z,-0.94
2019-01-24T07:20:19.632Z,-1.14
2019-01-24T07:22:50.676Z,-1.20
2019-01-24T07:25:23.498Z,-1.02
2019-01-24T07:27:54.384Z,-1.08
2019-01-24T07:30:26.461Z,-1.15
2019-01-24T07:32:57.287Z,-1.14
2019-01-24T07:35:28.370Z,-1.23
2019-01-24T07:37:59.124Z,-1.05
2019-01-24T07:40:29.913Z,-1.31
2019-01-24T07:43:00.695Z,-1.07
2019-01-24T07:45:37.134Z,-1.06
2019-01-24T07:48:08.117Z,-0.95
2019-01-24T07:50:39.076Z,-0.96
2019-01-24T07:53:09.879Z,-1.18
2019-01-24T07:55:40.852Z,-1.24
2019-01-24T07:58:11.776Z,-1.16
2019-01-24T08:00:42.722Z,-1.06
2019-01-24T08:03:13.626Z,-1.17
2019-01-24T08:05:44.529Z,-1.16
2019-01-24T08:08:15.298Z,-1.26
2019-01-24T08:10:46.236Z,-1.20
2019-01-24T08:13:17.111Z,-1.22
2019-01-24T08:15:48.995Z,-1.08
2019-01-24T08:18:19.708Z,-0.97
2019-01-24T08:20:50.673Z,-0.97
2019-01-24T08:23:21.488Z,-1.05
2019-01-24T08:25:52.563Z,-1.18
2019-01-24T08:28:23.333Z,-1.17
2019-01-24T08:30:54.216Z,-1.13
2019-01-24T08:33:24.999Z,-1.23
2019-01-24T08:35:55.934Z,-1.05
2019-01-24T08:38:26.771Z,-1.04
2019-01-24T08:40:57.689Z,-0.96
2019-01-24T08:43:28.441Z,-1.03
2019-01-24T08:45:59.329Z,-1.03
2019-01-24T08:48:30.224Z,-1.18
2019-01-24T08:51:01.139Z,-1.01
2019-01-24T08:53:31.827Z,-1.09
2019-01-24T08:56:02.873Z,-0.96
2019-01-24T08:58:33.695Z,-0.87
2019-01-24T09:01:04.837Z,-0.90
2019-01-24T09:03:35.748Z,-0.78
2019-01-24T09:06:06.949Z,-0.63
2019-01-24T09:08:37.860Z,-0.59
2019-01-24T09:11:08.748Z,-0.70
2019-01-24T09:13:39.534Z,-0.65
2019-01-24T09:16:10.505Z,-0.63
2019-01-24T09:18:41.280Z,-0.64
2019-01-24T09:21:12.914Z,-0.72
2019-01-24T09:23:43.643Z,-0.66
2019-01-24T09:26:14.585Z,-0.53
2019-01-24T09:28:45.359Z,-0.50
2019-01-24T09:31:17.257Z,-0.43
2019-01-24T09:33:48.039Z,-0.42
2019-01-24T09:36:18.917Z,-0.45
2019-01-24T09:38:49.713Z,-0.47
2019-01-24T09:41:20.595Z,-0.67
2019-01-24T09:43:51.516Z,-0.73
2019-01-24T09:46:22.505Z,-0.45
2019-01-24T09:48:53.358Z,-0.50
2019-01-24T09:51:24.281Z,-0.51
2019-01-24T09:53:55.167Z,-0.63
2019-01-24T09:56:26.136Z,-0.41
2019-01-24T09:58:57.082Z,-0.24
2019-01-24T10:01:28.010Z,-0.42
2019-01-24T10:03:58.885Z,-0.24
2019-01-24T10:06:36.066Z,-0.59
2019-01-24T10:09:02.610Z,-0.44
2019-01-24T10:11:35.330Z,-0.54
2019-01-24T10:14:06.780Z,-0.48
2019-01-24T10:16:37.918Z,-0.35
2019-01-24T10:19:08.869Z,-0.21
2019-01-24T10:21:39.763Z,-0.50
2019-01-24T10:24:10.529Z,-0.64
2019-01-24T10:26:42.209Z,-0.65
2019-01-24T10:29:14.376Z,-0.65
2019-01-24T10:31:46.439Z,-0.64
2019-01-24T10:34:17.353Z,-0.36
2019-01-24T10:36:48.282Z,-0.47
2019-01-24T10:39:19.101Z,-0.57
2019-01-24T10:41:50.087Z,-0.71
2019-01-24T10:44:21.006Z,-0.59
2019-01-24T10:46:52.599Z,-0.54
2019-01-24T10:49:23.268Z,-0.70
2019-01-24T10:51:55.073Z,-0.68
2019-01-24T10:54:25.854Z,-0.51
2019-01-24T10:56:56.752Z,-0.53
2019-01-24T10:59:27.520Z,-0.30
2019-01-24T11:01:58.412Z,-0.35
2019-01-24T11:04:29.202Z,-0.50
2019-01-24T11:07:00.087Z,-0.32
2019-01-24T11:09:30.904Z,-0.12
2019-01-24T11:12:02.185Z,0.00
2019-01-24T11:14:32.959Z,-0.01
2019-01-24T11:17:03.842Z,0.11
2019-01-24T11:19:34.532Z,0.21
2019-01-24T11:22:05.596Z,0.08
2019-01-24T11:24:36.435Z,0.09
2019-01-24T11:27:07.340Z,-0.02
2019-01-24T11:29:38.211Z,-0.13
2019-01-24T11:32:09.394Z,-0.19
2019-01-24T11:34:40.517Z,-0.24
2019-01-24T11:37:11.673Z,-0.29
2019-01-24T11:39:42.578Z,-0.03
2019-01-24T11:42:13.513Z,-0.02
2019-01-24T11:44:44.260Z,-0.32
2019-01-24T11:47:15.185Z,-0.23
2019-01-24T11:49:46.100Z,-0.09
2019-01-24T11:52:17.130Z,0.07
2019-01-24T11:54:48.108Z,-0.03
2019-01-24T11:57:19.860Z,0.02
2019-01-24T11:59:50.614Z,0.06
2019-01-24T12:02:21.443Z,0.16
2019-01-24T12:04:52.477Z,0.19
2019-01-24T12:07:23.452Z,0.24
2019-01-24T12:09:54.254Z,0.30
2019-01-24T12:12:25.095Z,0.24
2019-01-24T12:14:55.989Z,0.30
2019-01-24T12:17:26.955Z,0.37
2019-01-24T12:19:58.228Z,0.28
2019-01-24T12:22:29.065Z,0.25
2019-01-24T12:24:59.953Z,0.35
2019-01-24T12:27:30.837Z,0.11
2019-01-24T12:30:01.732Z,0.28
2019-01-24T12:32:33.069Z,0.22
2019-01-24T12:35:04.106Z,0.28
2019-01-24T12:37:35.285Z,0.23
2019-01-24T12:40:06.420Z,0.15
2019-01-24T12:42:37.223Z,0.11
2019-01-24T12:45:10.839Z,0.29
2019-01-24T12:47:41.655Z,0.34
2019-01-24T12:50:13.848Z,0.37
2019-01-24T12:52:44.756Z,0.28
2019-01-24T12:55:16.129Z,0.41
2019-01-24T12:57:46.852Z,0.41
2019-01-24T13:00:22.523Z,0.41
2019-01-24T13:02:53.588Z,0.48
2019-01-24T13:05:24.530Z,0.57
2019-01-24T13:07:55.648Z,0.64
2019-01-24T13:10:27.587Z,0.30
2019-01-24T13:12:58.864Z,0.38
2019-01-24T13:15:31.217Z,0.35
2019-01-24T13:18:02.113Z,0.47
2019-01-24T13:20:33.031Z,0.43
2019-01-24T13:23:04.184Z,0.51
2019-01-24T13:25:35.592Z,0.53
2019-01-24T13:28:07.307Z,0.50
2019-01-24T13:30:38.178Z,0.43
2019-01-24T13:33:09.070Z,0.44
2019-01-24T13:35:40.092Z,0.48
2019-01-24T13:38:11.053Z,0.56
2019-01-24T13:40:41.834Z,0.41
2019-01-24T13:43:12.820Z,0.22
2019-01-24T13:45:43.504Z,0.38
2019-01-24T13:48:14.290Z,0.50
2019-01-24T13:50:45.172Z,0.27
2019-01-24T13:53:15.876Z,0.35
2019-01-24T13:55:46.760Z,0.41
2019-01-24T13:58:17.643Z,0.55
2019-01-24T14:00:49.525Z,0.60
2019-01-24T14:03:48.442Z,0.64
2019-01-24T14:06:19.384Z,0.49
2019-01-24T14:08:50.159Z,0.53
2019-01-24T14:11:21.084Z,0.55
2019-01-24T14:13:52.456Z,0.32
2019-01-24T14:16:23.380Z,0.46
2019-01-24T14:18:54.353Z,0.54
2019-01-24T14:21:25.208Z,0.49
2019-01-24T14:23:56.004Z,0.38
2019-01-24T14:26:26.892Z,0.29
2019-01-24T14:28:57.855Z,0.34
2019-01-24T14:31:28.697Z,0.13
2019-01-24T14:33:59.575Z,0.35
2019-01-24T14:36:30.436Z,0.49
2019-01-24T14:39:00.960Z,0.45
2019-01-24T14:41:33.244Z,0.40
2019-01-24T14:44:04.258Z,0.40
2019-01-24T14:46:35.016Z,0.36
2019-01-24T14:49:05.888Z,0.20
2019-01-24T14:51:36.786Z,0.35
2019-01-24T14:54:07.972Z,0.32
2019-01-24T14:56:38.703Z,0.36
2019-01-24T14:59:09.577Z,0.40
2019-01-24T15:01:40.542Z,0.26
2019-01-24T15:04:11.394Z,0.25
2019-01-24T15:06:42.243Z,0.39
2019-01-24T15:09:13.175Z,0.38
2019-01-24T15:11:44.125Z,0.40
2019-01-24T15:14:15.047Z,0.42
2019-01-24T15:16:45.692Z,0.42
2019-01-24T15:19:16.462Z,0.46
2019-01-24T15:21:47.335Z,0.49
2019-01-24T15:24:18.450Z,0.31
2019-01-24T15:26:49.308Z,0.32
2019-01-24T15:29:21.056Z,0.33
2019-01-24T15:31:51.944Z,0.27
2019-01-24T15:34:23.000Z,0.27
2019-01-24T15:36:53.884Z,0.36
2019-01-24T15:39:24.810Z,0.43
2019-01-24T15:41:55.657Z,0.40
2019-01-24T15:44:28.487Z,0.41
2019-01-24T15:46:59.589Z,0.42
2019-01-24T15:49:30.406Z,0.47
2019-01-24T15:52:01.291Z,0.42
2019-01-24T15:54:32.085Z,0.40
2019-01-24T15:57:02.970Z,0.40
2019-01-24T15:59:33.849Z,0.34
2019-01-24T16:02:04.703Z,0.38
2019-01-24T16:04:35.794Z,0.33
2019-01-24T16:07:06.725Z,0.32
2019-01-24T16:09:37.675Z,0.20
2019-01-24T16:12:08.708Z,0.22
2019-01-24T16:14:39.620Z,0.21
2019-01-24T16:17:10.483Z,0.16
2019-01-24T16:19:41.428Z,0.13
2019-01-24T16:22:12.351Z,0.20
2019-01-24T16:24:43.342Z,0.22
2019-01-24T16:27:14.092Z,0.21
2019-01-24T16:29:44.869Z,0.24
2019-01-24T16:32:15.764Z,0.20
2019-01-24T16:34:46.848Z,0.07
2019-01-24T16:37:17.927Z,0.03
2019-01-24T16:39:49.040Z,-0.12
2019-01-24T16:42:19.834Z,-0.08
2019-01-24T16:44:50.636Z,-0.06
2019-01-24T16:47:21.505Z,-0.01
2019-01-24T16:49:52.419Z,-0.01
2019-01-24T16:52:23.280Z,-0.10
2019-01-24T16:54:54.068Z,-0.11
2019-01-24T16:57:24.777Z,-0.04
2019-01-24T16:59:55.656Z,-0.09
2019-01-24T17:02:26.561Z,-0.13
2019-01-24T17:04:57.432Z,-0.16
2019-01-24T17:07:28.336Z,-0.22
2019-01-24T17:09:59.401Z,-0.13
2019-01-24T17:12:30.211Z,-0.05
2019-01-24T17:15:02.108Z,-0.04
2019-01-24T17:17:32.964Z,0.05
2019-01-24T17:20:04.608Z,0.07
2019-01-24T17:22:35.503Z,-0.07
2019-01-24T17:25:07.999Z,0.00
2019-01-24T17:27:45.805Z,0.05
2019-01-24T17:30:14.053Z,0.08
2019-01-24T17:32:44.954Z,-0.04
2019-01-24T17:35:15.964Z,-0.06
2019-01-24T17:37:46.824Z,-0.12
2019-01-24T17:40:20.687Z,-0.13
2019-01-24T17:42:51.607Z,-0.05
2019-01-24T17:45:22.585Z,0.00
2019-01-24T17:47:53.388Z,0.02
2019-01-24T17:50:24.359Z,0.04
2019-01-24T17:52:55.153Z,-0.03
2019-01-24T17:55:31.590Z,-0.01
2019-01-24T17:58:02.421Z,0.07
2019-01-24T18:00:35.964Z,0.10
2019-01-24T18:03:07.325Z,0.13
2019-01-24T18:05:38.523Z,0.15
2019-01-24T18:08:09.461Z,0.19
2019-01-24T18:10:40.354Z,0.18
2019-01-24T18:13:11.242Z,0.15
2019-01-24T18:15:42.115Z,0.16
2019-01-24T18:18:15.090Z,0.14
2019-01-24T18:20:46.533Z,0.18
2019-01-24T18:23:17.508Z,0.15
2019-01-24T18:25:48.445Z,0.20
2019-01-24T18:28:19.321Z,0.24
2019-01-24T18:30:50.485Z,0.24
2019-01-24T18:33:21.339Z,0.21
2019-01-24T18:35:53.109Z,0.16
2019-01-24T18:38:24.002Z,0.19
2019-01-24T18:40:54.883Z,0.18
2019-01-24T18:43:27.124Z,0.15
2019-01-24T18:46:00.257Z,0.17
2019-01-24T18:48:31.138Z,0.05
2019-01-24T18:51:02.132Z,-0.03
2019-01-24T18:53:33.120Z,-0.08
2019-01-24T18:56:03.824Z,-0.14
2019-01-24T18:58:35.079Z,-0.27
2019-01-24T19:01:06.088Z,-0.20
2019-01-24T19:03:36.971Z,-0.14
2019-01-24T19:06:08.080Z,-0.11
2019-01-24T19:08:45.722Z,-0.23
2019-01-24T19:11:11.584Z,-0.15
2019-01-24T19:13:42.471Z,-0.15
2019-01-24T19:16:14.460Z,-0.23
2019-01-24T19:18:45.382Z,-0.35
2019-01-24T19:21:16.334Z,-0.23
2019-01-24T19:23:47.349Z,-0.09
2019-01-24T19:26:18.119Z,-0.11
2019-01-24T19:28:49.013Z,-0.17
2019-01-24T19:31:19.908Z,-0.21
2019-01-24T19:33:50.793Z,-0.33
2019-01-24T19:36:21.814Z,-0.46
2019-01-24T19:38:53.774Z,-0.39
2019-01-24T19:41:25.109Z,-0.44
2019-01-24T19:43:55.985Z,-0.42
2019-01-24T19:46:27.089Z,-0.26
2019-01-24T19:48:58.309Z,-0.19
2019-01-24T19:51:29.333Z,-0.26
2019-01-24T19:54:00.218Z,-0.25
2019-01-24T19:56:31.263Z,-0.16
2019-01-24T19:59:02.059Z,-0.08
2019-01-24T20:01:33.074Z,-0.09
2019-01-24T20:04:04.393Z,-0.08
2019-01-24T20:06:35.621Z,-0.12
2019-01-24T20:09:10.024Z,-0.10
2019-01-24T20:11:40.895Z,-0.07
2019-01-24T20:14:11.754Z,-0.06
2019-01-24T20:16:43.024Z,-0.09
2019-01-24T20:19:13.941Z,-0.15
2019-01-24T20:21:46.092Z,-0.08
2019-01-24T20:24:17.381Z,-0.03
2019-01-24T20:26:48.531Z,-0.07
2019-01-24T20:29:19.527Z,-0.25
2019-01-24T20:31:51.267Z,-0.42
2019-01-24T20:34:22.057Z,-0.44
2019-01-24T20:36:53.485Z,-0.35
2019-01-24T20:39:24.295Z,-0.30
2019-01-24T20:41:55.197Z,-0.31
2019-01-24T20:44:26.019Z,-0.20
2019-01-24T20:46:56.898Z,-0.14
2019-01-24T20:49:27.558Z,-0.13
2019-01-24T20:51:58.422Z,-0.28
2019-01-24T20:54:29.235Z,-0.46
2019-01-24T20:57:00.243Z,-0.43
2019-01-24T20:59:31.101Z,-0.39
2019-01-24T21:02:02.175Z,-0.29
2019-01-24T21:04:32.917Z,-0.13
2019-01-24T21:07:03.882Z,-0.13
2019-01-24T21:09:34.795Z,-0.12
2019-01-24T21:12:05.772Z,-0.22
2019-01-24T21:14:36.542Z,-0.18
2019-01-24T21:17:07.574Z,-0.10
2019-01-24T21:19:38.401Z,-0.10
2019-01-24T21:22:09.432Z,-0.10
2019-01-24T21:24:40.289Z,-0.07
2019-01-24T21:27:11.105Z,-0.06
2019-01-24T21:29:41.853Z,-0.07
2019-01-24T21:32:12.838Z,-0.07
2019-01-24T21:34:43.636Z,-0.06
2019-01-24T21:37:14.612Z,-0.09
2019-01-24T21:39:45.451Z,-0.07
2019-01-24T21:42:16.327Z,-0.07
2019-01-24T21:44:47.122Z,-0.08
2019-01-24T21:47:18.067Z,-0.11
2019-01-24T21:49:48.960Z,-0.11
2019-01-24T21:52:19.824Z,-0.12
2019-01-24T21:54:50.525Z,-0.13
2019-01-24T21:57:21.509Z,-0.19
2019-01-24T21:59:52.437Z,-0.19
2019-01-24T22:02:23.760Z,-0.20
2019-01-24T22:04:54.620Z,-0.16
2019-01-24T22:07:25.576Z,-0.16
2019-01-24T22:09:56.506Z,-0.17
2019-01-24T22:12:27.468Z,-0.32
2019-01-24T22:14:58.278Z,-0.27
2019-01-24T22:17:29.361Z,-0.23
2019-01-24T22:20:00.266Z,-0.25
2019-01-24T22:22:31.158Z,-0.22
2019-01-24T22:25:02.039Z,-0.21
2019-01-24T22:27:33.100Z,-0.17
2019-01-24T22:30:04.173Z,-0.17
2019-01-24T22:32:34.968Z,-0.19
2019-01-24T22:35:07.292Z,-0.21
2019-01-24T22:37:38.369Z,-0.22
2019-01-24T22:40:10.095Z,-0.24
2019-01-24T22:42:41.068Z,-0.24
2019-01-24T22:45:15.035Z,-0.19
2019-01-24T22:47:46.188Z,-0.17
2019-01-24T22:50:17.222Z,-0.16
2019-01-24T22:52:48.101Z,-0.32
2019-01-24T22:55:19.304Z,-0.23
2019-01-24T22:57:50.310Z,-0.19
2019-01-24T23:00:52.513Z,-0.37
2019-01-24T23:03:37.329Z,-0.39
2019-01-24T23:06:08.245Z,-0.35
2019-01-24T23:08:39.220Z,-0.29
2019-01-24T23:11:11.160Z,-0.26
2019-01-24T23:13:42.106Z,-0.24
2019-01-24T23:16:13.135Z,-0.25
2019-01-24T23:18:45.104Z,-0.26
2019-01-24T23:21:16.001Z,-0.24
2019-01-24T23:23:46.902Z,-0.25
2019-01-24T23:26:17.815Z,-0.23
2019-01-24T23:28:48.876Z,-0.21
2019-01-24T23:31:19.754Z,-0.24
2019-01-24T23:33:50.638Z,-0.26
2019-01-24T23:36:21.565Z,-0.30
2019-01-24T23:38:52.837Z,-0.32
2019-01-24T23:41:23.708Z,-0.30
2019-01-24T23:43:54.661Z,-0.27
2019-01-24T23:46:25.523Z,-0.33
2019-01-24T23:48:56.405Z,-0.41
2019-01-24T23:51:27.275Z,-0.53
2019-01-24T23:53:58.180Z,-0.57
2019-01-24T23:56:28.936Z,-0.56
2019-01-24T23:58:59.812Z,-0.58
